sensor_id;sensor_type;location;lat;lon;timestamp;P1;durP1;ratioP1;P2;durP2;ratioP2
55527;SDS011;52818;43.308;21.916;2022-11-06T00:01:49;44.10;;;28.40;;
55527;SDS011;52818;43.308;21.916;2022-11-06T00:03:50;42.90;;;28.30;;
55527;SDS011;52818;43.308;21.916;2022-11-06T00:05:49;45.40;;;28.80;;
55527;SDS011;52818;43.308;21.916;2022-11-06T00:07:49;41.80;;;27.70;;
55527;SDS011;52818;43.308;21.916;2022-11-06T00:09:49;40.90;;;27.90;;
55527;SDS011;52818;43.308;21.916;2022-11-06T00:11:49;;;;27.40;;
55527;SDS011;52818;43.308;21.916;2022-11-06T00:13:49;39.40;;;27.60;;
55527;SDS011;52818;43.308;21.916;2022-11-06T00:15:49;43.30;;;28.10;;
55527;SDS011;52818;43.308;21.916;2022-11-06T00:17:50;43.90;;;27.90;;
55527;SDS011;52818;43.308;21.916;2022-11-06T00:21:50;40.80;;;27.20;;
55527;SDS011;52818;43.308;21.916;2022-11-06T00:23:50;42.30;;;27.50;;
55527;SDS011;52818;43.308;21.916;2022-11-06T00:25:51;40.10;;;26.90;;
55527;SDS011;52818;43.308;21.916;2022-11-06T00:27:50;42.20;;;27.40;;
55527;SDS011;52818;43.308;21.916;2022-11-06T00:29:50;42.30;;;27.30;;
55527;SDS011;52818;43.308;21.916;2022-11-06T00:33:51;40.60;;;27.10;;
55527;SDS011;52818;43.308;21.916;2022-11-06T00:35:51;38.90;;;26.50;;
55527;SDS011;52818;43.308;21.916;2022-11-06T00:37:51;38.80;;;26.70;;
55527;SDS011;52818;43.308;21.916;2022-11-06T00:39:51;40.80;;;27.20;;
55527;SDS011;52818;43.308;21.916;2022-11-06T00:41:51;39.90;;;26.70;;
55527;SDS011;52818;43.308;21.916;2022-11-06T00:43:52;40.40;;;26.90;;
55527;SDS011;52818;43.308;21.916;2022-11-06T00:45:51;40.50;;;26.70;;
55527;SDS011;52818;43.308;21.916;2022-11-06T00:47:51;40.90;;;26.40;;
55527;SDS011;52818;43.308;21.916;2022-11-06T00:49:51;44.50;;;26.50;;
55527;SDS011;52818;43.308;21.916;2022-11-06T00:51:51;41.90;;;26.40;;
55527;SDS011;52818;43.308;21.916;2022-11-06T00:53:52;41.40;;;26.30;;
55527;SDS011;52818;43.308;21.916;2022-11-06T00:55:52;40.20;;;26.00;;
55527;SDS011;52818;43.308;21.916;2022-11-06T00:57:52;41.20;;;25.60;;
55527;SDS011;52818;43.308;21.916;2022-11-06T00:59:52;40.30;;;;;
55527;SDS011;52818;43.308;21.916;2022-11-06T01:01:52;38.30;;;26.30;;
55527;SDS011;52818;43.308;21.916;2022-11-06T01:03:53;38.70;;;25.70;;
55527;SDS011;52818;43.308;21.916;2022-11-06T01:05:52;40.00;;;26.60;;
55527;SDS011;52818;43.308;21.916;2022-11-06T01:07:52;39.30;;;25.60;;
55527;SDS011;52818;43.308;21.916;2022-11-06T01:09:52;41.40;;;25.90;;
55527;SDS011;52818;43.308;21.916;2022-11-06T01:11:53;38.60;;;25.00;;
55527;SDS011;52818;43.308;21.916;2022-11-06T01:13:54;37.90;;;25.80;;
55527;SDS011;52818;43.308;21.916;2022-11-06T01:15:53;38.90;;;25.60;;
55527;SDS011;52818;43.308;21.916;2022-11-06T01:17:53;37.50;;;25.50;;
55527;SDS011;52818;43.308;21.916;2022-11-06T01:19:53;40.00;;;25.80;;
55527;SDS011;52818;43.308;21.916;2022-11-06T01:21:53;39.20;;;25.10;;
55527;SDS011;52818;43.308;21.916;2022-11-06T01:23:54;38.10;;;25.40;;
55527;SDS011;52818;43.308;21.916;2022-11-06T01:25:55;39.50;;;25.80;;
55527;SDS011;52818;43.308;21.916;2022-11-06T01:27:53;38.10;;;24.30;;
55527;SDS011;52818;43.308;21.916;2022-11-06T01:29:53;38.20;;;24.40;;
55527;SDS011;52818;43.308;21.916;2022-11-06T01:31:54;40.90;;;24.50;;
55527;SDS011;52818;43.308;21.916;2022-11-06T01:33:54;40.50;;;24.20;;
55527;SDS011;52818;43.308;21.916;2022-11-06T01:35:54;40.70;;;25.70;;
55527;SDS011;52818;43.308;21.916;2022-11-06T01:37:54;37.50;;;24.60;;
55527;SDS011;52818;43.308;21.916;2022-11-06T01:39:54;39.90;;;24.80;;
55527;SDS011;52818;43.308;21.916;2022-11-06T01:41:54;36.40;;;24.30;;
55527;SDS011;52818;43.308;21.916;2022-11-06T01:43:55;37.10;;;23.50;;
55527;SDS011;52818;43.308;21.916;2022-11-06T01:45:54;40.50;;;24.20;;
55527;SDS011;52818;43.308;21.916;2022-11-06T01:47:54;39.20;;;24.40;;
55527;SDS011;52818;43.308;21.916;2022-11-06T01:49:54;37.10;;;24.20;;
55527;SDS011;52818;43.308;21.916;2022-11-06T01:51:55;35.90;;;23.00;;
55527;SDS011;52818;43.308;21.916;2022-11-06T01:53:55;;;;23.40;;
55527;SDS011;52818;43.308;21.916;2022-11-06T01:55:56;35.30;;;23.10;;
55527;SDS011;52818;43.308;21.916;2022-11-06T01:57:55;37.40;;;23.40;;
55527;SDS011;52818;43.308;21.916;2022-11-06T01:59:55;37.30;;;24.00;;
55527;SDS011;52818;43.308;21.916;2022-11-06T02:01:55;35.20;;;22.80;;
55527;SDS011;52818;43.308;21.916;2022-11-06T02:03:56;34.40;;;22.90;;
55527;SDS011;52818;43.308;21.916;2022-11-06T02:05:55;35.60;;;22.60;;
55527;SDS011;52818;43.308;21.916;2022-11-06T02:07:55;34.80;;;22.20;;
55527;SDS011;52818;43.308;21.916;2022-11-06T02:09:55;34.20;;;21.80;;
55527;SDS011;52818;43.308;21.916;2022-11-06T02:11:57;35.60;;;22.80;;
55527;SDS011;52818;43.308;21.916;2022-11-06T02:13:58;35.00;;;22.10;;
55527;SDS011;52818;43.308;21.916;2022-11-06T02:15:57;36.60;;;21.70;;
55527;SDS011;52818;43.308;21.916;2022-11-06T02:18:00;34.30;;;22.10;;
55527;SDS011;52818;43.308;21.916;2022-11-06T02:19:59;35.70;;;21.50;;
55527;SDS011;52818;43.308;21.916;2022-11-06T02:22:01;34.10;;;21.70;;
55527;SDS011;52818;43.308;21.916;2022-11-06T02:24:01;36.70;;;21.60;;
55527;SDS011;52818;43.308;21.916;2022-11-06T02:26:00;34.50;;;22.10;;
55527;SDS011;52818;43.308;21.916;2022-11-06T02:27:58;33.50;;;21.90;;
55527;SDS011;52818;43.308;21.916;2022-11-06T02:29:57;31.20;;;21.50;;
55527;SDS011;52818;43.308;21.916;2022-11-06T02:31:56;32.10;;;21.30;;
55527;SDS011;52818;43.308;21.916;2022-11-06T02:33:58;29.90;;;20.30;;
55527;SDS011;52818;43.308;21.916;2022-11-06T02:35:57;29.10;;;19.40;;
55527;SDS011;52818;43.308;21.916;2022-11-06T02:37:57;31.60;;;19.90;;
55527;SDS011;52818;43.308;21.916;2022-11-06T02:39:57;32.10;;;19.40;;
55527;SDS011;52818;43.308;21.916;2022-11-06T02:41:57;28.30;;;18.70;;
55527;SDS011;52818;43.308;21.916;2022-11-06T02:43:57;30.80;;;19.90;;
55527;SDS011;52818;43.308;21.916;2022-11-06T02:45:58;30.30;;;18.80;;
55527;SDS011;52818;43.308;21.916;2022-11-06T02:47:57;32.30;;;19.40;;
55527;SDS011;52818;43.308;21.916;2022-11-06T02:49:59;29.70;;;19.20;;
55527;SDS011;52818;43.308;21.916;2022-11-06T02:51:57;30.10;;;19.30;;
55527;SDS011;52818;43.308;21.916;2022-11-06T02:53:59;28.30;;;19.00;;
55527;SDS011;52818;43.308;21.916;2022-11-06T02:56:28;26.90;;;18.50;;
55527;SDS011;52818;43.308;21.916;2022-11-06T02:58:28;27.40;;;18.20;;
55527;SDS011;52818;43.308;21.916;2022-11-06T03:00:28;32.90;;;18.40;;
55527;SDS011;52818;43.308;21.916;2022-11-06T03:02:29;30.30;;;18.70;;
55527;SDS011;52818;43.308;21.916;2022-11-06T03:04:29;27.60;;;18.10;;
55527;SDS011;52818;43.308;21.916;2022-11-06T03:06:28;28.40;;;18.40;;
55527;SDS011;52818;43.308;21.916;2022-11-06T03:08:29;26.80;;;17.40;;
55527;SDS011;52818;43.308;21.916;2022-11-06T03:10:29;30.10;;;17.80;;
55527;SDS011;52818;43.308;21.916;2022-11-06T03:12:29;26.40;;;17.00;;
55527;SDS011;52818;43.308;21.916;2022-11-06T03:14:30;25.00;;;17.60;;
55527;SDS011;52818;43.308;21.916;2022-11-06T03:16:31;26.70;;;16.60;;
55527;SDS011;52818;43.308;21.916;2022-11-06T03:18:29;26.50;;;16.90;;
55527;SDS011;52818;43.308;21.916;2022-11-06T03:20:30;24.90;;;16.40;;
55527;SDS011;52818;43.308;21.916;2022-11-06T03:22:29;26.00;;;;;
55527;SDS011;52818;43.308;21.916;2022-11-06T03:24:30;26.20;;;16.80;;
55527;SDS011;52818;43.308;21.916;2022-11-06T03:26:29;25.00;;;15.40;;
55527;SDS011;52818;43.308;21.916;2022-11-06T03:28:29;20.00;;;15.10;;
55527;SDS011;52818;43.308;21.916;2022-11-06T03:30:29;22.20;;;14.60;;
55527;SDS011;52818;43.308;21.916;2022-11-06T03:32:30;22.90;;;15.10;;
55527;SDS011;52818;43.308;21.916;2022-11-06T03:34:30;22.00;;;14.40;;
55527;SDS011;52818;43.308;21.916;2022-11-06T03:36:30;23.20;;;13.90;;
55527;SDS011;52818;43.308;21.916;2022-11-06T03:38:30;20.90;;;;;
55527;SDS011;52818;43.308;21.916;2022-11-06T03:40:30;21.60;;;;;
55527;SDS011;52818;43.308;21.916;2022-11-06T03:42:30;20.20;;;13.10;;
55527;SDS011;52818;43.308;21.916;2022-11-06T03:44:31;19.30;;;13.80;;
55527;SDS011;52818;43.308;21.916;2022-11-06T03:46:30;;;;13.10;;
55527;SDS011;52818;43.308;21.916;2022-11-06T03:48:31;18.70;;;12.80;;
55527;SDS011;52818;43.308;21.916;2022-11-06T03:50:31;17.50;;;12.70;;
55527;SDS011;52818;43.308;21.916;2022-11-06T03:52:31;18.50;;;12.40;;
55527;SDS011;52818;43.308;21.916;2022-11-06T03:54:31;18.10;;;12.10;;
55527;SDS011;52818;43.308;21.916;2022-11-06T03:56:33;17.10;;;12.30;;
55527;SDS011;52818;43.308;21.916;2022-11-06T03:58:32;18.60;;;12.70;;
55527;SDS011;52818;43.308;21.916;2022-11-06T04:00:31;17.50;;;11.80;;
55527;SDS011;52818;43.308;21.916;2022-11-06T04:02:31;17.20;;;12.10;;
55527;SDS011;52818;43.308;21.916;2022-11-06T04:04:32;17.00;;;;;
55527;SDS011;52818;43.308;21.916;2022-11-06T04:06:32;17.70;;;11.90;;
55527;SDS011;52818;43.308;21.916;2022-11-06T04:08:31;17.10;;;11.80;;
55527;SDS011;52818;43.308;21.916;2022-11-06T04:10:31;19.00;;;12.10;;
55527;SDS011;52818;43.308;21.916;2022-11-06T04:12:31;15.80;;;11.10;;
55527;SDS011;52818;43.308;21.916;2022-11-06T04:14:32;16.50;;;11.80;;
55527;SDS011;52818;43.308;21.916;2022-11-06T04:16:32;18.50;;;12.20;;
55527;SDS011;52818;43.308;21.916;2022-11-06T04:18:32;17.10;;;12.00;;
55527;SDS011;52818;43.308;21.916;2022-11-06T04:20:33;16.90;;;11.70;;
55527;SDS011;52818;43.308;21.916;2022-11-06T04:22:36;18.80;;;11.90;;
55527;SDS011;52818;43.308;21.916;2022-11-06T04:24:33;16.80;;;11.80;;
55527;SDS011;52818;43.308;21.916;2022-11-06T04:26:32;17.80;;;11.60;;
55527;SDS011;52818;43.308;21.916;2022-11-06T04:28:33;17.50;;;;;
55527;SDS011;52818;43.308;21.916;2022-11-06T04:30:33;16.50;;;11.70;;
55527;SDS011;52818;43.308;21.916;2022-11-06T04:32:44;17.80;;;11.90;;
55527;SDS011;52818;43.308;21.916;2022-11-06T04:34:34;16.90;;;;;
55527;SDS011;52818;43.308;21.916;2022-11-06T04:36:34;17.00;;;11.50;;
55527;SDS011;52818;43.308;21.916;2022-11-06T04:38:34;18.10;;;11.90;;
55527;SDS011;52818;43.308;21.916;2022-11-06T04:40:35;16.00;;;11.30;;
55527;SDS011;52818;43.308;21.916;2022-11-06T04:42:34;17.60;;;11.80;;
55527;SDS011;52818;43.308;21.916;2022-11-06T04:44:34;16.20;;;11.90;;
55527;SDS011;52818;43.308;21.916;2022-11-06T04:46:34;17.90;;;11.80;;
55527;SDS011;52818;43.308;21.916;2022-11-06T04:48:33;16.80;;;11.50;;
55527;SDS011;52818;43.308;21.916;2022-11-06T04:50:34;16.40;;;11.60;;
55527;SDS011;52818;43.308;21.916;2022-11-06T04:52:33;17.60;;;11.70;;
55527;SDS011;52818;43.308;21.916;2022-11-06T04:54:33;18.80;;;11.60;;
55527;SDS011;52818;43.308;21.916;2022-11-06T04:56:34;15.70;;;11.20;;
55527;SDS011;52818;43.308;21.916;2022-11-06T04:58:34;17.00;;;11.30;;
55527;SDS011;52818;43.308;21.916;2022-11-06T05:00:34;15.90;;;10.90;;
55527;SDS011;52818;43.308;21.916;2022-11-06T05:02:34;16.90;;;11.10;;
55527;SDS011;52818;43.308;21.916;2022-11-06T05:04:34;17.10;;;10.90;;
55527;SDS011;52818;43.308;21.916;2022-11-06T05:06:34;14.60;;;10.50;;
55527;SDS011;52818;43.308;21.916;2022-11-06T05:08:34;17.50;;;11.20;;
55527;SDS011;52818;43.308;21.916;2022-11-06T05:10:34;17.10;;;10.80;;
55527;SDS011;52818;43.308;21.916;2022-11-06T05:12:34;15.80;;;10.50;;
55527;SDS011;52818;43.308;21.916;2022-11-06T05:14:34;17.40;;;11.00;;
55527;SDS011;52818;43.308;21.916;2022-11-06T05:16:35;15.70;;;10.40;;
55527;SDS011;52818;43.308;21.916;2022-11-06T05:18:35;15.20;;;10.90;;
55527;SDS011;52818;43.308;21.916;2022-11-06T05:20:35;;;;10.70;;
55527;SDS011;52818;43.308;21.916;2022-11-06T05:22:38;16.60;;;10.80;;
55527;SDS011;52818;43.308;21.916;2022-11-06T05:24:35;14.20;;;10.60;;
55527;SDS011;52818;43.308;21.916;2022-11-06T05:26:35;16.10;;;10.70;;
55527;SDS011;52818;43.308;21.916;2022-11-06T05:28:35;16.80;;;10.60;;
55527;SDS011;52818;43.308;21.916;2022-11-06T05:30:35;16.90;;;11.30;;
55527;SDS011;52818;43.308;21.916;2022-11-06T05:32:35;;;;10.50;;
55527;SDS011;52818;43.308;21.916;2022-11-06T05:34:35;16.40;;;10.60;;
55527;SDS011;52818;43.308;21.916;2022-11-06T05:36:35;16.70;;;11.20;;
55527;SDS011;52818;43.308;21.916;2022-11-06T05:38:36;16.20;;;10.60;;
55527;SDS011;52818;43.308;21.916;2022-11-06T05:40:36;16.10;;;10.30;;
55527;SDS011;52818;43.308;21.916;2022-11-06T05:42:36;;;;10.80;;
55527;SDS011;52818;43.308;21.916;2022-11-06T05:44:36;16.40;;;;;
55527;SDS011;52818;43.308;21.916;2022-11-06T05:46:36;16.90;;;11.30;;
55527;SDS011;52818;43.308;21.916;2022-11-06T05:48:36;18.30;;;11.60;;
55527;SDS011;52818;43.308;21.916;2022-11-06T05:50:36;17.10;;;11.40;;
55527;SDS011;52818;43.308;21.916;2022-11-06T05:52:36;18.80;;;11.70;;
55527;SDS011;52818;43.308;21.916;2022-11-06T05:54:36;20.20;;;;;
55527;SDS011;52818;43.308;21.916;2022-11-06T05:56:37;19.80;;;;;
55527;SDS011;52818;43.308;21.916;2022-11-06T05:58:37;16.50;;;11.50;;
55527;SDS011;52818;43.308;21.916;2022-11-06T06:00:37;17.40;;;11.70;;
55527;SDS011;52818;43.308;21.916;2022-11-06T06:02:37;19.00;;;12.00;;
55527;SDS011;52818;43.308;21.916;2022-11-06T06:04:37;17.10;;;11.50;;
55527;SDS011;52818;43.308;21.916;2022-11-06T06:06:37;16.50;;;11.70;;
55527;SDS011;52818;43.308;21.916;2022-11-06T06:08:37;17.20;;;11.40;;
55527;SDS011;52818;43.308;21.916;2022-11-06T06:10:39;18.60;;;12.00;;
55527;SDS011;52818;43.308;21.916;2022-11-06T06:12:37;16.60;;;11.50;;
55527;SDS011;52818;43.308;21.916;2022-11-06T06:14:37;19.00;;;;;
55527;SDS011;52818;43.308;21.916;2022-11-06T06:16:37;19.60;;;11.80;;
55527;SDS011;52818;43.308;21.916;2022-11-06T06:18:37;20.70;;;12.00;;
55527;SDS011;52818;43.308;21.916;2022-11-06T06:20:38;17.20;;;11.90;;
55527;SDS011;52818;43.308;21.916;2022-11-06T06:22:38;18.10;;;11.60;;
55527;SDS011;52818;43.308;21.916;2022-11-06T06:24:38;19.70;;;12.80;;
55527;SDS011;52818;43.308;21.916;2022-11-06T06:26:38;19.80;;;12.50;;
55527;SDS011;52818;43.308;21.916;2022-11-06T06:28:38;19.30;;;12.80;;
55527;SDS011;52818;43.308;21.916;2022-11-06T06:30:38;19.00;;;12.50;;
55527;SDS011;52818;43.308;21.916;2022-11-06T06:32:38;18.90;;;;;
55527;SDS011;52818;43.308;21.916;2022-11-06T06:34:38;19.70;;;13.60;;
55527;SDS011;52818;43.308;21.916;2022-11-06T06:36:38;20.50;;;14.00;;
55527;SDS011;52818;43.308;21.916;2022-11-06T06:38:38;19.50;;;12.80;;
55527;SDS011;52818;43.308;21.916;2022-11-06T06:40:38;20.50;;;13.30;;
55527;SDS011;52818;43.308;21.916;2022-11-06T06:42:38;22.60;;;13.50;;
55527;SDS011;52818;43.308;21.916;2022-11-06T06:44:39;25.60;;;15.50;;
55527;SDS011;52818;43.308;21.916;2022-11-06T06:46:39;25.80;;;15.80;;
55527;SDS011;52818;43.308;21.916;2022-11-06T06:48:39;30.70;;;25.90;;
55527;SDS011;52818;43.308;21.916;2022-11-06T06:50:39;22.90;;;16.40;;
55527;SDS011;52818;43.308;21.916;2022-11-06T06:52:39;22.10;;;17.00;;
55527;SDS011;52818;43.308;21.916;2022-11-06T06:54:39;24.20;;;15.90;;
55527;SDS011;52818;43.308;21.916;2022-11-06T06:56:39;22.30;;;14.90;;
55527;SDS011;52818;43.308;21.916;2022-11-06T06:58:39;21.90;;;14.00;;
55527;SDS011;52818;43.308;21.916;2022-11-06T07:00:39;23.30;;;;;
55527;SDS011;52818;43.308;21.916;2022-11-06T07:02:39;22.00;;;13.70;;
55527;SDS011;52818;43.308;21.916;2022-11-06T07:05:10;20.80;;;13.00;;
55527;SDS011;52818;43.308;21.916;2022-11-06T07:07:10;19.90;;;12.90;;
55527;SDS011;52818;43.308;21.916;2022-11-06T07:09:10;24.80;;;14.40;;
55527;SDS011;52818;43.308;21.916;2022-11-06T07:11:10;21.50;;;14.20;;
55527;SDS011;52818;43.308;21.916;2022-11-06T07:13:10;29.90;;;17.60;;
55527;SDS011;52818;43.308;21.916;2022-11-06T07:15:10;25.10;;;16.00;;
55527;SDS011;52818;43.308;21.916;2022-11-06T07:17:10;28.50;;;18.30;;
55527;SDS011;52818;43.308;21.916;2022-11-06T07:19:10;27.20;;;17.50;;
55527;SDS011;52818;43.308;21.916;2022-11-06T07:21:11;24.70;;;15.40;;
55527;SDS011;52818;43.308;21.916;2022-11-06T07:23:11;25.00;;;15.70;;
55527;SDS011;52818;43.308;21.916;2022-11-06T07:25:11;23.50;;;15.50;;
55527;SDS011;52818;43.308;21.916;2022-11-06T07:27:11;25.20;;;16.00;;
55527;SDS011;52818;43.308;21.916;2022-11-06T07:29:11;25.10;;;15.40;;
55527;SDS011;52818;43.308;21.916;2022-11-06T07:31:11;31.20;;;18.50;;
55527;SDS011;52818;43.308;21.916;2022-11-06T07:33:11;28.40;;;16.50;;
55527;SDS011;52818;43.308;21.916;2022-11-06T07:35:11;27.30;;;17.00;;
55527;SDS011;52818;43.308;21.916;2022-11-06T07:37:11;29.50;;;18.80;;
55527;SDS011;52818;43.308;21.916;2022-11-06T07:39:11;27.90;;;18.90;;
55527;SDS011;52818;43.308;21.916;2022-11-06T07:41:12;29.30;;;;;
55527;SDS011;52818;43.308;21.916;2022-11-06T07:43:12;29.60;;;19.70;;
55527;SDS011;52818;43.308;21.916;2022-11-06T07:45:12;32.20;;;19.20;;
55527;SDS011;52818;43.308;21.916;2022-11-06T07:47:12;36.40;;;23.10;;
55527;SDS011;52818;43.308;21.916;2022-11-06T07:49:12;31.50;;;19.60;;
55527;SDS011;52818;43.308;21.916;2022-11-06T07:51:12;29.90;;;18.70;;
55527;SDS011;52818;43.308;21.916;2022-11-06T07:53:12;25.60;;;17.40;;
55527;SDS011;52818;43.308;21.916;2022-11-06T07:55:12;23.40;;;16.30;;
55527;SDS011;52818;43.308;21.916;2022-11-06T07:57:13;24.60;;;16.50;;
55527;SDS011;52818;43.308;21.916;2022-11-06T07:59:13;22.20;;;14.90;;
55527;SDS011;52818;43.308;21.916;2022-11-06T08:01:13;22.00;;;15.10;;
55527;SDS011;52818;43.308;21.916;2022-11-06T08:03:13;23.30;;;14.10;;
55527;SDS011;52818;43.308;21.916;2022-11-06T08:05:13;24.20;;;17.20;;
55527;SDS011;52818;43.308;21.916;2022-11-06T08:07:13;23.30;;;16.00;;
55527;SDS011;52818;43.308;21.916;2022-11-06T08:09:13;22.40;;;15.80;;
55527;SDS011;52818;43.308;21.916;2022-11-06T08:11:13;21.20;;;15.70;;
55527;SDS011;52818;43.308;21.916;2022-11-06T08:13:14;20.20;;;14.50;;
55527;SDS011;52818;43.308;21.916;2022-11-06T08:15:14;21.40;;;15.30;;
55527;SDS011;52818;43.308;21.916;2022-11-06T08:17:14;20.40;;;14.80;;
55527;SDS011;52818;43.308;21.916;2022-11-06T08:19:14;21.90;;;16.20;;
55527;SDS011;52818;43.308;21.916;2022-11-06T08:21:14;21.60;;;15.10;;
55527;SDS011;52818;43.308;21.916;2022-11-06T08:23:14;19.40;;;13.80;;
55527;SDS011;52818;43.308;21.916;2022-11-06T08:25:14;22.40;;;14.50;;
55527;SDS011;52818;43.308;21.916;2022-11-06T08:27:14;22.00;;;15.50;;
55527;SDS011;52818;43.308;21.916;2022-11-06T08:29:14;23.80;;;16.00;;
55527;SDS011;52818;43.308;21.916;2022-11-06T08:31:14;20.10;;;14.30;;
55527;SDS011;52818;43.308;21.916;2022-11-06T08:33:14;22.30;;;15.70;;
55527;SDS011;52818;43.308;21.916;2022-11-06T08:35:15;22.90;;;16.20;;
55527;SDS011;52818;43.308;21.916;2022-11-06T08:37:15;23.30;;;16.90;;
55527;SDS011;52818;43.308;21.916;2022-11-06T08:39:15;23.40;;;15.90;;
55527;SDS011;52818;43.308;21.916;2022-11-06T08:41:15;24.50;;;18.30;;
55527;SDS011;52818;43.308;21.916;2022-11-06T08:43:15;33.60;;;22.30;;
55527;SDS011;52818;43.308;21.916;2022-11-06T08:45:15;30.10;;;20.60;;
55527;SDS011;52818;43.308;21.916;2022-11-06T08:47:15;34.20;;;22.80;;
55527;SDS011;52818;43.308;21.916;2022-11-06T08:49:15;31.70;;;22.60;;
55527;SDS011;52818;43.308;21.916;2022-11-06T08:51:15;25.20;;;18.70;;
55527;SDS011;52818;43.308;21.916;2022-11-06T08:53:16;22.70;;;17.10;;
55527;SDS011;52818;43.308;21.916;2022-11-06T08:55:15;27.50;;;19.00;;
55527;SDS011;52818;43.308;21.916;2022-11-06T08:57:16;28.20;;;19.50;;
55527;SDS011;52818;43.308;21.916;2022-11-06T08:59:16;26.40;;;18.10;;
55527;SDS011;52818;43.308;21.916;2022-11-06T09:01:16;23.60;;;17.60;;
55527;SDS011;52818;43.308;21.916;2022-11-06T09:03:16;27.00;;;18.00;;
55527;SDS011;52818;43.308;21.916;2022-11-06T09:05:16;25.30;;;17.20;;
55527;SDS011;52818;43.308;21.916;2022-11-06T09:07:16;25.10;;;18.10;;
55527;SDS011;52818;43.308;21.916;2022-11-06T09:09:16;26.40;;;17.80;;
55527;SDS011;52818;43.308;21.916;2022-11-06T09:11:16;26.50;;;17.90;;
55527;SDS011;52818;43.308;21.916;2022-11-06T09:13:16;27.10;;;18.90;;
55527;SDS011;52818;43.308;21.916;2022-11-06T09:15:16;27.40;;;18.40;;
55527;SDS011;52818;43.308;21.916;2022-11-06T09:17:17;27.70;;;17.60;;
55527;SDS011;52818;43.308;21.916;2022-11-06T09:19:17;22.70;;;16.50;;
55527;SDS011;52818;43.308;21.916;2022-11-06T09:21:17;21.20;;;15.70;;
55527;SDS011;52818;43.308;21.916;2022-11-06T09:23:17;28.30;;;19.40;;
55527;SDS011;52818;43.308;21.916;2022-11-06T09:25:17;25.10;;;17.50;;
55527;SDS011;52818;43.308;21.916;2022-11-06T09:27:17;22.30;;;16.30;;
55527;SDS011;52818;43.308;21.916;2022-11-06T09:29:17;22.20;;;16.00;;
55527;SDS011;52818;43.308;21.916;2022-11-06T09:31:17;;;;15.90;;
55527;SDS011;52818;43.308;21.916;2022-11-06T09:33:17;22.60;;;15.50;;
55527;SDS011;52818;43.308;21.916;2022-11-06T09:35:17;21.40;;;15.40;;
55527;SDS011;52818;43.308;21.916;2022-11-06T09:37:18;24.10;;;17.30;;
55527;SDS011;52818;43.308;21.916;2022-11-06T09:39:18;;;;17.60;;
55527;SDS011;52818;43.308;21.916;2022-11-06T09:41:19;26.00;;;17.20;;
55527;SDS011;52818;43.308;21.916;2022-11-06T09:43:23;27.70;;;19.00;;
55527;SDS011;52818;43.308;21.916;2022-11-06T09:45:18;27.90;;;19.90;;
55527;SDS011;52818;43.308;21.916;2022-11-06T09:47:19;29.30;;;;;
55527;SDS011;52818;43.308;21.916;2022-11-06T09:49:21;27.90;;;19.40;;
55527;SDS011;52818;43.308;21.916;2022-11-06T09:51:19;28.80;;;19.90;;
55527;SDS011;52818;43.308;21.916;2022-11-06T09:53:19;30.60;;;20.90;;
55527;SDS011;52818;43.308;21.916;2022-11-06T09:55:19;31.30;;;22.00;;
55527;SDS011;52818;43.308;21.916;2022-11-06T09:57:19;30.50;;;21.80;;
55527;SDS011;52818;43.308;21.916;2022-11-06T09:59:19;30.20;;;20.30;;
55527;SDS011;52818;43.308;21.916;2022-11-06T10:01:19;28.10;;;19.30;;
55527;SDS011;52818;43.308;21.916;2022-11-06T10:03:21;27.50;;;19.50;;
55527;SDS011;52818;43.308;21.916;2022-11-06T10:05:22;25.10;;;17.80;;
55527;SDS011;52818;43.308;21.916;2022-11-06T10:07:21;26.50;;;18.40;;
55527;SDS011;52818;43.308;21.916;2022-11-06T10:09:19;26.70;;;19.30;;
55527;SDS011;52818;43.308;21.916;2022-11-06T10:11:24;27.80;;;18.60;;
55527;SDS011;52818;43.308;21.916;2022-11-06T10:13:23;30.20;;;20.30;;
55527;SDS011;52818;43.308;21.916;2022-11-06T10:15:21;33.60;;;21.00;;
55527;SDS011;52818;43.308;21.916;2022-11-06T10:17:24;29.10;;;19.80;;
55527;SDS011;52818;43.308;21.916;2022-11-06T10:19:23;27.60;;;20.10;;
55527;SDS011;52818;43.308;21.916;2022-11-06T10:21:22;27.00;;;19.80;;
55527;SDS011;52818;43.308;21.916;2022-11-06T10:23:22;30.50;;;22.10;;
55527;SDS011;52818;43.308;21.916;2022-11-06T10:25:21;29.00;;;20.40;;
55527;SDS011;52818;43.308;21.916;2022-11-06T10:27:21;28.80;;;19.70;;
55527;SDS011;52818;43.308;21.916;2022-11-06T10:29:26;28.00;;;;;
55527;SDS011;52818;43.308;21.916;2022-11-06T10:31:22;26.10;;;18.50;;
55527;SDS011;52818;43.308;21.916;2022-11-06T10:33:23;30.50;;;19.70;;
55527;SDS011;52818;43.308;21.916;2022-11-06T10:35:21;27.00;;;18.40;;
55527;SDS011;52818;43.308;21.916;2022-11-06T10:37:21;28.00;;;19.20;;
55527;SDS011;52818;43.308;21.916;2022-11-06T10:39:21;34.20;;;23.10;;
55527;SDS011;52818;43.308;21.916;2022-11-06T10:41:21;34.70;;;23.60;;
55527;SDS011;52818;43.308;21.916;2022-11-06T10:43:23;32.90;;;21.60;;
55527;SDS011;52818;43.308;21.916;2022-11-06T10:45:21;30.80;;;22.60;;
55527;SDS011;52818;43.308;21.916;2022-11-06T10:47:21;31.10;;;21.30;;
55527;SDS011;52818;43.308;21.916;2022-11-06T10:49:24;33.00;;;21.90;;
55527;SDS011;52818;43.308;21.916;2022-11-06T10:51:26;28.70;;;19.80;;
55527;SDS011;52818;43.308;21.916;2022-11-06T10:53:22;30.40;;;21.80;;
55527;SDS011;52818;43.308;21.916;2022-11-06T10:55:40;27.60;;;20.00;;
55527;SDS011;52818;43.308;21.916;2022-11-06T10:57:25;26.70;;;19.30;;
55527;SDS011;52818;43.308;21.916;2022-11-06T10:59:51;29.70;;;20.30;;
55527;SDS011;52818;43.308;21.916;2022-11-06T11:01:52;29.60;;;19.30;;
55527;SDS011;52818;43.308;21.916;2022-11-06T11:03:52;29.70;;;20.50;;
55527;SDS011;52818;43.308;21.916;2022-11-06T11:05:52;30.20;;;20.80;;
55527;SDS011;52818;43.308;21.916;2022-11-06T11:07:52;27.30;;;19.90;;
55527;SDS011;52818;43.308;21.916;2022-11-06T11:09:52;29.40;;;20.30;;
55527;SDS011;52818;43.308;21.916;2022-11-06T11:11:52;28.40;;;20.70;;
55527;SDS011;52818;43.308;21.916;2022-11-06T11:14:25;30.30;;;21.20;;
55527;SDS011;52818;43.308;21.916;2022-11-06T11:15:52;32.90;;;22.00;;
55527;SDS011;52818;43.308;21.916;2022-11-06T11:18:15;30.30;;;22.10;;
55527;SDS011;52818;43.308;21.916;2022-11-06T11:19:52;32.00;;;22.50;;
55527;SDS011;52818;43.308;21.916;2022-11-06T11:21:54;34.40;;;23.20;;
55527;SDS011;52818;43.308;21.916;2022-11-06T11:24:09;29.50;;;20.50;;
55527;SDS011;52818;43.308;21.916;2022-11-06T11:25:53;31.50;;;22.00;;
55527;SDS011;52818;43.308;21.916;2022-11-06T11:27:53;28.40;;;20.60;;
55527;SDS011;52818;43.308;21.916;2022-11-06T11:29:53;29.60;;;21.50;;
55527;SDS011;52818;43.308;21.916;2022-11-06T11:31:54;30.20;;;21.20;;
55527;SDS011;52818;43.308;21.916;2022-11-06T11:33:54;30.00;;;21.40;;
55527;SDS011;52818;43.308;21.916;2022-11-06T11:35:53;30.20;;;;;
55527;SDS011;52818;43.308;21.916;2022-11-06T11:38:03;27.20;;;20.50;;
55527;SDS011;52818;43.308;21.916;2022-11-06T11:39:55;29.80;;;22.60;;
55527;SDS011;52818;43.308;21.916;2022-11-06T11:41:59;30.30;;;21.90;;